Time;durP1;ratioP1;P1;durP2;ratioP2;P2;SDS_P1;SDS_P2;PMS_P1;PMS_P2;Temp;Humidity;BMP_temperature;BMP_pressure;BME280_temperature;BME280_humidity;BME280_pressure;Samples;Min_cycle;Max_cycle;Signal;HPM_P1;HPM_P2
2023/10/16 00:01:15;;;;;;;;;;;;;;;21.08;41.26;99935.23;105621;1296;81243;-89
2023/10/16 00:03:41;;;;;;;;;;;;;;;21.08;41.47;99942.44;105597;1299;66279;-88
2023/10/16 00:06:12;;;;;;;;;;;;;;;21.08;41.38;99949.85;105714;1297;66280;-88
2023/10/16 00:08:47;;;;;;;;;;;;;;;21.07;41.38;99953.02;105608;1293;66481;-87
2023/10/16 00:13:51;;;;;;;;;;;;;;;21.06;41.47;99955.09;105431;1301;82336;-88
2023/10/16 00:16:19;;;;;;;;;;;;;;;21.06;41.40;99956.67;105594;1296;66953;-88
2023/10/16 00:18:45;;;;;;;;;;;;;;;21.05;41.35;99966.50;105546;1297;66837;-88
2023/10/16 00:21:11;;;;;;;;;;;;;;;21.05;41.58;99966.02;105558;1300;67071;-89
2023/10/16 00:23:38;;;;;;;;;;;;;;;21.04;41.52;99974.96;105650;1295;74534;-88
2023/10/16 00:28:36;;;;;;;;;;;;;;;21.03;41.60;99983.86;105534;1299;72028;-88
2023/10/16 00:31:05;;;;;;;;;;;;;;;21.03;41.52;99979.30;105599;1299;66893;-88
2023/10/16 00:33:33;;;;;;;;;;;;;;;21.03;41.59;99978.27;105522;1296;66892;-88
2023/10/16 00:36:00;;;;;;;;;;;;;;;21.02;41.59;99983.60;105577;1296;74443;-88
2023/10/16 00:38:25;;;;;;;;;;;;;;;21.02;41.62;99983.83;105536;1294;83418;-88
2023/10/16 00:43:43;;;;;;;;;;;;;;;21.01;41.62;99996.82;105557;1300;68334;-88
2023/10/16 00:46:09;;;;;;;;;;;;;;;21.01;41.72;100006.79;105614;1299;66903;-89
2023/10/16 00:48:41;;;;;;;;;;;;;;;21.00;41.89;100002.76;105660;1300;66307;-89
2023/10/16 00:51:10;;;;;;;;;;;;;;;21.00;41.63;99999.48;105579;1299;81070;-89
2023/10/16 00:53:36;;;;;;;;;;;;;;;21.00;41.72;100001.16;105558;1298;73232;-89
2023/10/16 00:58:30;;;;;;;;;;;;;;;20.99;41.94;100007.69;105491;1299;67239;-88
2023/10/16 01:00:57;;;;;;;;;;;;;;;20.99;41.79;100001.34;105617;1295;66893;-88
2023/10/16 01:03:23;;;;;;;;;;;;;;;20.98;41.83;100003.13;105544;1300;82246;-88
2023/10/16 01:05:49;;;;;;;;;;;;;;;20.98;41.90;100003.64;105514;1300;67132;-89
2023/10/16 01:08:17;;;;;;;;;;;;;;;20.98;41.78;100007.52;105602;1298;68185;-88
2023/10/16 01:10:47;;;;;;;;;;;;;;;20.97;41.68;100005.48;105628;1299;66307;-88
2023/10/16 01:13:13;;;;;;;;;;;;;;;20.97;41.88;100008.86;105624;1299;75194;-88
2023/10/16 01:18:15;;;;;;;;;;;;;;;20.96;41.86;100016.08;105604;1296;71722;-90
2023/10/16 01:20:46;;;;;;;;;;;;;;;20.96;41.94;100007.17;105548;1300;67133;-89
2023/10/16 01:23:15;;;;;;;;;;;;;;;20.95;41.96;100005.55;105638;1301;66989;-88
2023/10/16 01:25:41;;;;;;;;;;;;;;;20.95;42.00;100013.99;105615;1299;77241;-88
2023/10/16 01:28:06;;;;;;;;;;;;;;;20.95;41.86;100029.74;105595;1300;67117;-88
2023/10/16 01:30:34;;;;;;;;;;;;;;;20.94;41.98;100036.81;105587;1298;67746;-89
2023/10/16 01:32:59;;;;;;;;;;;;;;;20.94;41.89;100046.53;105560;1301;66381;-89
2023/10/16 01:35:29;;;;;;;;;;;;;;;20.94;42.02;100056.65;105637;1297;66963;-89
2023/10/16 01:38:27;;;;;;;;;;;;;;;20.94;41.94;100054.36;105520;1300;74274;-88
2023/10/16 01:43:20;;;;;;;;;;;;;;;20.93;41.90;100047.92;105561;1299;71091;-89
2023/10/16 01:45:52;;;;;;;;;;;;;;;20.93;41.94;100055.49;105576;1297;66891;-88
2023/10/16 01:48:20;;;;;;;;;;;;;;;20.93;41.90;100059.02;105550;1304;66901;-88
2023/10/16 01:50:50;;;;;;;;;;;;;;;20.93;42.10;100057.28;105512;1300;74366;-89
2023/10/16 01:53:25;;;;;;;;;;;;;;;20.92;41.94;100069.20;105564;1293;81969;-88
2023/10/16 01:58:17;;;;;;;;;;;;;;;20.92;41.94;100098.52;105615;1299;67320;-88
2023/10/16 02:00:43;;;;;;;;;;;;;;;20.92;42.11;100101.33;105564;1299;67019;-89
2023/10/16 02:03:09;;;;;;;;;;;;;;;20.92;42.18;100096.27;105489;1299;67175;-89
2023/10/16 02:05:41;;;;;;;;;;;;;;;20.91;42.11;100088.18;105593;1294;67296;-88
2023/10/16 02:08:07;;;;;;;;;;;;;;;20.91;42.07;100082.77;105624;1299;71470;-88
2023/10/16 02:10:32;;;;;;;;;;;;;;;20.90;42.12;100087.98;105542;1299;67869;-88
2023/10/16 02:12:58;;;;;;;;;;;;;;;20.90;42.06;100094.67;105551;1295;67624;-89
2023/10/16 02:15:24;;;;;;;;;;;;;;;20.90;41.99;100092.84;105598;1300;66821;-89
2023/10/16 02:17:49;;;;;;;;;;;;;;;20.89;42.01;100099.09;105569;1305;66357;-88
2023/10/16 02:20:20;;;;;;;;;;;;;;;20.90;42.04;100114.48;105554;1296;67144;-88
2023/10/16 02:22:53;;;;;;;;;;;;;;;20.89;42.05;100114.52;105553;1295;66927;31
2023/10/16 02:25:19;;;;;;;;;;;;;;;20.88;42.03;100114.17;105528;1299;74527;-88
2023/10/16 02:27:45;;;;;;;;;;;;;;;20.89;42.09;100113.77;105601;1299;67029;-89
2023/10/16 02:30:20;;;;;;;;;;;;;;;20.88;41.87;100111.71;105586;1299;67397;-89
2023/10/16 02:32:45;;;;;;;;;;;;;;;20.87;41.93;100112.69;105540;1294;66418;-88
2023/10/16 02:35:13;;;;;;;;;;;;;;;20.87;42.01;100118.16;105457;1297;67985;-88
2023/10/16 02:37:57;;;;;;;;;;;;;;;20.87;42.06;100123.79;105620;1299;67783;-89
2023/10/16 02:40:26;;;;;;;;;;;;;;;20.87;41.98;100123.29;105370;1302;82264;-89
2023/10/16 02:43:00;;;;;;;;;;;;;;;20.86;42.12;100127.16;105549;1300;72415;-89
2023/10/16 02:45:26;;;;;;;;;;;;;;;20.86;41.92;100132.59;105605;1300;67638;-89
2023/10/16 02:47:53;;;;;;;;;;;;;;;20.85;42.00;100143.53;105575;1296;67021;-88
2023/10/16 02:50:21;;;;;;;;;;;;;;;20.83;42.16;100154.73;105500;1299;67117;-89
2023/10/16 02:52:52;;;;;;;;;;;;;;;20.82;42.17;100147.59;105618;1294;83161;31
2023/10/16 02:55:18;;;;;;;;;;;;;;;20.81;42.15;100141.10;105519;1299;72440;-89
2023/10/16 03:00:34;;;;;;;;;;;;;;;20.78;41.92;100133.04;105118;1299;557307;-89
2023/10/16 03:03:00;;;;;;;;;;;;;;;20.67;42.15;100139.20;105671;1300;74499;-89
2023/10/16 03:05:28;;;;;;;;;;;;;;;20.47;42.07;100155.61;105709;1299;67036;-89
2023/10/16 03:07:58;;;;;;;;;;;;;;;20.19;42.09;100162.58;105741;1294;72324;-89
2023/10/16 03:10:26;;;;;;;;;;;;;;;19.91;42.33;100153.09;105553;1300;66990;-89
2023/10/16 03:12:52;;;;;;;;;;;;;;;19.67;42.46;100155.84;105627;1300;66974;-88
2023/10/16 03:15:21;;;;;;;;;;;;;;;19.45;42.74;100168.33;105688;1300;66913;-88
2023/10/16 03:17:50;;;;;;;;;;;;;;;19.27;42.86;100175.27;105579;1300;82141;-88
2023/10/16 03:20:20;;;;;;;;;;;;;;;19.12;43.19;100181.20;105562;1300;73361;-88
2023/10/16 03:22:50;;;;;;;;;;;;;;;19.01;43.24;100181.42;105595;1300;66770;-89
2023/10/16 03:25:50;;;;;;;;;;;;;;;19.01;43.41;100183.52;105734;1300;67579;-88
2023/10/16 03:27:57;;;;;;;;;;;;;;;19.04;43.54;100188.27;105542;1298;73692;-88
2023/10/16 03:30:27;;;;;;;;;;;;;;;19.11;43.59;100184.58;105525;1296;67010;-88
2023/10/16 03:32:53;;;;;;;;;;;;;;;19.19;43.57;100187.34;105510;1303;72457;-88
2023/10/16 03:35:25;;;;;;;;;;;;;;;19.24;43.40;100202.01;105504;1296;68038;-88
2023/10/16 03:37:52;;;;;;;;;;;;;;;19.27;43.45;100218.98;105523;1294;67001;-88
2023/10/16 03:40:19;;;;;;;;;;;;;;;19.25;43.26;100220.05;105535;1299;75596;-88
2023/10/16 03:42:48;;;;;;;;;;;;;;;19.22;43.37;100215.21;105694;1299;82305;-89
2023/10/16 03:45:14;;;;;;;;;;;;;;;19.19;43.53;100221.46;105589;1296;72268;-89
2023/10/16 03:47:42;;;;;;;;;;;;;;;19.13;43.66;100231.80;105555;1299;66426;-89
2023/10/16 03:50:08;;;;;;;;;;;;;;;19.07;43.69;100236.67;105619;1300;66531;-89
2023/10/16 03:52:42;;;;;;;;;;;;;;;19.01;43.86;100238.28;105706;1294;67644;-88
2023/10/16 03:55:22;;;;;;;;;;;;;;;18.85;43.66;100246.44;105635;1300;82877;-90
2023/10/16 03:57:56;;;;;;;;;;;;;;;18.65;43.87;100274.56;92682;1300;550721;-89
2023/10/16 04:00:33;;;;;;;;;;;;;;;18.52;44.00;100284.60;105532;1297;67799;-90
2023/10/16 04:03:08;;;;;;;;;;;;;;;18.47;44.08;100285.75;105402;1298;67112;-88
2023/10/16 04:05:46;;;;;;;;;;;;;;;18.44;44.00;100293.77;105517;1299;74492;-89
2023/10/16 04:08:30;;;;;;;;;;;;;;;18.31;44.06;100307.57;105666;1303;82131;-90
2023/10/16 04:11:07;;;;;;;;;;;;;;;18.28;44.18;100324.82;105411;1299;72650;-89
2023/10/16 05:00:54;;;;;;;;;;;;;;;18.94;43.12;100486.33;86336;1298;71756;31
2023/10/16 06:33:42;;;;;;;;;;;;;;;19.26;43.40;100735.96;87886;1297;80930;-89
2023/10/16 07:38:37;;;;;;;;;;;;;;;19.40;43.05;100904.25;105741;1292;80190;31
2023/10/16 08:31:10;;;;;;;;;;;;;;;19.09;42.67;100951.77;92758;1293;71952;31
2023/10/16 08:37:09;;;;;;;;;;;;;;;19.16;42.55;100958.35;99881;1298;67336;-91
2023/10/16 09:00:16;;;;;;;;;;;;;;;19.36;42.57;100998.25;91710;1295;80315;-92
2023/10/16 09:29:20;;;;;;;;;;;;;;;19.32;42.32;101020.08;105819;1293;73831;31
2023/10/16 09:32:26;;;;;;;;;;;;;;;19.32;42.30;101028.10;105420;1296;81357;-89
2023/10/16 09:34:58;;;;;;;;;;;;;;;19.31;42.22;101032.01;105757;1297;73273;-90
2023/10/16 09:37:34;;;;;;;;;;;;;;;19.29;42.35;101030.53;105576;1296;67686;-89
2023/10/16 09:40:44;;;;;;;;;;;;;;;19.29;42.14;101031.05;105482;1300;67515;-89
2023/10/16 09:43:18;;;;;;;;;;;;;;;19.31;42.49;101030.10;105508;1300;74807;-88
2023/10/16 09:45:49;;;;;;;;;;;;;;;19.34;42.28;101028.48;105382;1299;81534;-88
2023/10/16 09:48:19;;;;;;;;;;;;;;;19.37;42.27;101026.89;105331;1304;67799;-93
2023/10/16 09:50:45;;;;;;;;;;;;;;;19.39;42.36;101029.41;105229;1301;67295;-88
2023/10/16 09:53:13;;;;;;;;;;;;;;;19.41;42.30;101032.14;105471;1300;67062;-89
2023/10/16 10:01:51;;;;;;;;;;;;;;;19.35;42.22;101026.56;83095;1325;71398;-90
2023/10/16 10:04:44;;;;;;;;;;;;;;;19.33;42.28;101033.11;105602;1296;68138;-91
2023/10/16 10:19:55;;;;;;;;;;;;;;;19.35;42.03;101031.55;83954;1291;66116;-90
2023/10/16 10:46:37;;;;;;;;;;;;;;;;;;;;;
2023/10/16 10:49:16;;;;;;;;;;;;;;;19.41;41.97;101015.92;105492;1292;66578;-90
2023/10/16 11:43:11;;;;;;;;;;;;;;;19.62;41.53;100981.42;88472;1300;73404;-91
2023/10/16 11:51:54;;;;;;;;;;;;;;;19.63;41.72;100981.63;105699;1296;66361;-90
2023/10/16 11:57:56;;;;;;;;;;;;;;;19.65;41.65;100981.16;105661;1296;74643;-91
2023/10/16 12:06:44;;;;;;;;;;;;;;;19.62;41.58;100981.17;90450;1299;66683;-92
2023/10/16 12:18:47;;;;;;;;;;;;;;;19.66;41.55;100980.30;105706;1294;71320;-92
2023/10/16 12:24:20;;;;;;;;;;;;;;;19.68;41.53;100979.26;105662;1292;67190;-91
2023/10/16 12:48:48;;;;;;;;;;;;;;;19.74;41.42;100967.64;95861;1293;71119;-92
2023/10/16 12:55:00;;;;;;;;;;;;;;;19.75;41.46;100956.30;105894;1295;68328;-93
2023/10/16 13:19:56;;;;;;;;;;;;;;;19.82;41.16;100967.13;103268;1296;73235;-87
2023/10/16 13:22:25;;;;;;;;;;;;;;;19.82;41.13;100964.73;105584;1300;67307;-89
2023/10/16 13:24:54;;;;;;;;;;;;;;;19.83;41.18;100964.65;105614;1299;66361;-93
2023/10/16 13:30:23;;;;;;;;;;;;;;;19.86;41.05;100959.46;105555;1297;83774;-91
2023/10/16 13:36:06;;;;;;;;;;;;;;;19.85;41.12;100960.69;87122;1294;67669;-90
2023/10/16 13:55:54;;;;;;;;;;;;;;;19.83;40.75;100959.07;105735;1298;67149;-90
2023/10/16 14:04:55;;;;;;;;;;;;;;;19.81;40.64;100965.02;105744;1296;71195;-92
2023/10/16 14:07:38;;;;;;;;;;;;;;;19.80;40.62;100963.38;105747;1296;66305;-91
2023/10/16 14:10:04;;;;;;;;;;;;;;;19.80;40.55;100959.80;105404;1300;66440;-89
2023/10/16 15:16:27;;;;;;;;;;;;;;;19.71;39.53;100987.27;89312;1296;73393;-92
2023/10/16 15:24:53;;;;;;;;;;;;;;;19.71;39.36;100994.10;94773;1299;67221;-93
2023/10/16 15:33:38;;;;;;;;;;;;;;;19.71;39.28;101009.52;103721;1297;81545;-92
2023/10/16 16:38:08;;;;;;;;;;;;;;;19.67;38.79;101094.92;90114;1295;525915;-93
2023/10/16 17:32:29;;;;;;;;;;;;;;;19.67;38.62;101134.14;108286;1263;68292;-93
2023/10/16 21:31:35;;;;;;;;;;;;;;;19.51;38.43;101291.59;108620;1265;75075;-91
2023/10/16 23:55:55;;;;;;;;;;;;;;;19.35;37.90;101324.58;109238;1266;74370;-93
